Hovedside
METAR-TAF:

METAR-TAF

Lufthavner :

N'Djamena, Tsjad

N'Djamena internasjonale lufthavn

breddegrad: 12-08N, lengdegrad: 015-02E, høyde over havet: 295 m

Gjeldene værobservasjon

Denne rapporten ble laget for 33 minutter siden, klokken 19:00 UTC
Vind 7 kt fra Nord-nordøst
Temperatur 21°C
Luftfuktighet 11%
Trykk 1012 hPa
Sikt: 8000 m

METAR: FTTJ 181900Z 02007KT 8000 NSC 21/M10 Q1012 NOSIG

Tid: 20:33 (19:33 UTC)

Varsel

Denne rapporten ble laget for 2 timer og 33 minutter siden, klokken 17:00 UTC
Varsel gyldig fra 18. klokken 18 UTC til 19. klokken 24 UTC
Vind 6 kt fra Nord-nordøst
Sikt: 6000 m
Midlertidig
fra 19. klokken 08 UTC til 19. klokken 15 UTC
Vind 12 kt fra Øst-nordøst

TAF: FTTJ 181700Z 1818/1924 02006KT 6000 NSW TEMPO 1908/1915 06012KT

Værobservasjoner og værvarsel for over 4000 flyplasser (METAR- og TAF-rapporter).

Tilgjengelige stasjoner er representert av de røde og gule prikkene på kartet.

Hold musepekeren over prikken for å se navnet på stasjonen.

Klikk så for å se værobservasjoner og -varsler.

For å forandre kartet kan du klikke på den grønne knappen med svart kryss for å zoome inn, på den grønne knappen med strek for å zoome ut, eller på de grønne pilene for å se tilstøtende kart.


METAR-TAF: